createdAt,value
2022-10-28T00:01:06.130Z,1.17
2022-10-28T00:03:34.991Z,2.57
2022-10-28T00:06:04.359Z,1.00
2022-10-28T00:08:32.793Z,0.50
2022-10-28T00:11:07.089Z,1.20
2022-10-28T00:13:36.030Z,0.50
2022-10-28T00:16:09.343Z,0.50
2022-10-28T00:18:37.794Z,1.43
2022-10-28T00:21:08.635Z,0.30
2022-10-28T00:23:36.825Z,0.63
2022-10-28T00:26:07.873Z,0.63
2022-10-28T00:28:36.234Z,1.30
2022-10-28T00:31:06.521Z,1.13
2022-10-28T00:33:34.670Z,1.10
2022-10-28T00:36:14.338Z,0.63
2022-10-28T00:38:43.801Z,0.90
2022-10-28T00:41:15.263Z,2.63
2022-10-28T00:43:45.737Z,1.50
2022-10-28T00:46:21.423Z,1.00
2022-10-28T00:48:53.250Z,0.50
2022-10-28T00:51:24.059Z,0.40
2022-10-28T00:53:54.247Z,0.40
2022-10-28T00:59:02.125Z,1.27
2022-10-28T01:01:30.341Z,2.10
2022-10-28T01:03:58.790Z,0.73
2022-10-28T01:06:28.732Z,0.53
2022-10-28T01:08:59.926Z,0.50
2022-10-28T01:11:52.545Z,0.60
2022-10-28T01:14:37.033Z,0.43
2022-10-28T01:17:28.539Z,1.03
2022-10-28T01:20:36.147Z,0.40
2022-10-28T01:23:15.362Z,1.73
2022-10-28T01:26:12.867Z,3.03
2022-10-28T01:29:12.150Z,0.80
2022-10-28T01:31:47.661Z,0.70
2022-10-28T01:34:27.738Z,1.17
2022-10-28T01:37:00.317Z,0.77
2022-10-28T01:39:34.122Z,1.30
2022-10-28T01:42:12.677Z,0.63
2022-10-28T01:44:49.535Z,0.63
2022-10-28T01:47:23.123Z,1.50
2022-10-28T01:49:57.855Z,0.87
2022-10-28T01:52:30.297Z,0.40
2022-10-28T01:55:03.207Z,0.70
2022-10-28T01:57:34.708Z,1.03
2022-10-28T02:00:04.333Z,0.57
2022-10-28T02:02:35.723Z,2.00
2022-10-28T02:05:06.812Z,0.50
2022-10-28T02:07:34.952Z,2.00
2022-10-28T02:10:13.667Z,0.67
2022-10-28T02:12:41.752Z,3.60
2022-10-28T02:15:40.270Z,1.27
2022-10-28T02:18:19.475Z,1.27
2022-10-28T02:20:52.498Z,2.03
2022-10-28T02:23:29.545Z,1.40
2022-10-28T02:26:01.857Z,0.77
2022-10-28T02:28:40.446Z,0.20
2022-10-28T02:31:17.183Z,0.33
2022-10-28T02:33:51.392Z,0.60
2022-10-28T02:36:21.553Z,0.60
2022-10-28T02:38:54.009Z,0.73
2022-10-28T02:41:27.024Z,1.73
2022-10-28T02:43:57.747Z,1.03
2022-10-28T02:46:27.211Z,0.60
2022-10-28T02:49:01.965Z,0.50
2022-10-28T02:51:35.666Z,1.10
2022-10-28T02:54:08.657Z,1.70
2022-10-28T02:56:40.325Z,2.80
2022-10-28T02:59:11.579Z,1.50
2022-10-28T03:01:40.195Z,1.70
2022-10-28T03:04:09.843Z,2.13
2022-10-28T03:06:38.318Z,1.80
2022-10-28T03:09:06.337Z,2.30
2022-10-28T03:11:34.484Z,0.63
2022-10-28T03:14:02.657Z,1.43
2022-10-28T03:16:30.600Z,0.73
2022-10-28T03:18:58.770Z,4.53
2022-10-28T03:21:28.112Z,0.73
2022-10-28T03:23:56.280Z,1.07
2022-10-28T03:26:24.269Z,0.90
2022-10-28T03:28:52.369Z,0.40
2022-10-28T03:31:20.439Z,1.03
2022-10-28T03:33:48.480Z,18.03
2022-10-28T03:36:16.479Z,1.70
2022-10-28T03:38:45.788Z,2.00
2022-10-28T03:41:13.741Z,0.83
2022-10-28T03:43:41.993Z,0.57
2022-10-28T03:46:09.981Z,0.37
2022-10-28T03:48:37.948Z,0.77
2022-10-28T03:51:06.219Z,0.83
2022-10-28T03:53:34.192Z,3.33
2022-10-28T03:56:04.112Z,0.83
2022-10-28T03:58:33.510Z,1.17
2022-10-28T04:01:03.144Z,0.77
2022-10-28T04:03:31.242Z,3.93
2022-10-28T04:06:01.490Z,0.57
2022-10-28T04:08:29.510Z,1.40
2022-10-28T04:10:57.523Z,0.97
2022-10-28T04:13:26.880Z,0.50
2022-10-28T04:15:54.854Z,1.10
2022-10-28T04:18:22.899Z,0.40
2022-10-28T04:20:50.884Z,1.40
2022-10-28T04:23:19.338Z,0.50
2022-10-28T04:25:47.509Z,1.43
2022-10-28T04:28:15.457Z,0.50
2022-10-28T04:30:44.815Z,2.23
2022-10-28T04:33:13.953Z,0.90
2022-10-28T04:35:43.183Z,2.23
2022-10-28T04:38:11.601Z,0.70
2022-10-28T04:40:39.812Z,0.70
2022-10-28T04:43:09.968Z,0.47
2022-10-28T04:45:39.083Z,1.13
2022-10-28T04:48:09.891Z,0.40
2022-10-28T04:50:38.200Z,1.70
2022-10-28T04:53:06.193Z,7.80
2022-10-28T04:55:34.221Z,1.00
2022-10-28T04:58:02.327Z,0.30
2022-10-28T05:00:31.010Z,5.17
2022-10-28T05:03:02.685Z,1.27
2022-10-28T05:05:32.200Z,2.37
2022-10-28T05:08:00.303Z,2.20
2022-10-28T05:10:30.447Z,5.00
2022-10-28T05:12:58.382Z,1.70
2022-10-28T05:15:27.157Z,1.70
2022-10-28T05:17:55.441Z,2.03
2022-10-28T05:20:24.148Z,0.90
2022-10-28T05:22:55.135Z,0.90
2022-10-28T05:25:23.987Z,2.53
2022-10-28T05:27:52.110Z,0.70
2022-10-28T05:30:20.349Z,0.90
2022-10-28T05:32:50.424Z,1.37
2022-10-28T05:35:20.981Z,2.53
2022-10-28T05:37:48.983Z,0.67
2022-10-28T05:40:18.491Z,1.10
2022-10-28T05:42:46.540Z,1.60
2022-10-28T05:45:15.060Z,1.30
2022-10-28T05:47:47.329Z,3.90
2022-10-28T05:50:17.407Z,0.70
2022-10-28T05:52:47.429Z,0.60
2022-10-28T05:55:15.999Z,2.10
2022-10-28T05:57:45.315Z,0.63
2022-10-28T06:00:14.944Z,3.27
2022-10-28T06:02:43.019Z,1.43
2022-10-28T06:05:11.778Z,1.73
2022-10-28T06:07:40.975Z,0.70
2022-10-28T06:10:10.790Z,0.73
2022-10-28T06:12:37.367Z,3.40
2022-10-28T06:15:07.980Z,0.73
2022-10-28T06:17:36.027Z,0.40
2022-10-28T06:20:05.375Z,0.80
2022-10-28T06:22:33.443Z,1.27
2022-10-28T06:25:01.521Z,1.10
2022-10-28T06:27:29.501Z,4.53
2022-10-28T06:29:57.460Z,1.43
2022-10-28T06:32:26.880Z,1.40
2022-10-28T06:34:54.826Z,1.17
2022-10-28T06:37:22.854Z,1.73
2022-10-28T06:39:52.060Z,1.43
2022-10-28T06:42:20.552Z,1.37
2022-10-28T06:44:49.502Z,1.13
2022-10-28T06:47:19.025Z,0.60
2022-10-28T06:49:48.348Z,0.80
2022-10-28T06:52:16.500Z,0.63
2022-10-28T06:54:44.622Z,1.13
2022-10-28T06:57:12.759Z,0.77
2022-10-28T06:59:40.885Z,0.80
2022-10-28T07:02:11.596Z,1.93
2022-10-28T07:04:39.995Z,0.70
2022-10-28T07:07:09.316Z,1.13
2022-10-28T07:09:39.574Z,1.10
2022-10-28T07:12:08.853Z,2.00
2022-10-28T07:14:37.111Z,1.87
2022-10-28T07:17:05.637Z,0.90
2022-10-28T07:19:33.880Z,1.17
2022-10-28T07:22:01.874Z,2.40
2022-10-28T07:24:31.379Z,11.60
2022-10-28T07:26:59.341Z,3.60
2022-10-28T07:29:27.333Z,3.40
2022-10-28T07:31:55.688Z,0.60
2022-10-28T07:34:26.900Z,2.20
2022-10-28T07:36:56.492Z,0.83
2022-10-28T07:39:24.809Z,1.03
2022-10-28T07:41:54.213Z,2.37
2022-10-28T07:44:22.347Z,1.07
2022-10-28T07:46:54.179Z,1.63
2022-10-28T07:49:25.362Z,0.67
2022-10-28T07:51:53.443Z,1.10
2022-10-28T07:54:21.529Z,1.80
2022-10-28T07:56:49.510Z,1.37
2022-10-28T07:59:25.750Z,2.00
2022-10-28T08:01:55.188Z,0.60
2022-10-28T08:04:23.267Z,1.13
2022-10-28T08:06:51.325Z,2.23
2022-10-28T08:09:19.683Z,0.80
2022-10-28T08:11:47.711Z,0.90
2022-10-28T08:14:16.192Z,1.30
2022-10-28T08:16:47.305Z,0.90
2022-10-28T08:19:15.508Z,1.23
2022-10-28T08:21:43.451Z,1.10
2022-10-28T08:24:11.437Z,2.53
2022-10-28T08:26:39.417Z,0.70
2022-10-28T08:29:08.210Z,1.10
2022-10-28T08:31:36.274Z,5.77
2022-10-28T08:34:06.204Z,4.63
2022-10-28T08:36:34.506Z,3.93
2022-10-28T08:39:03.100Z,3.77
2022-10-28T08:41:36.919Z,4.13
2022-10-28T08:44:24.918Z,4.03
2022-10-28T08:47:06.343Z,4.37
2022-10-28T08:49:40.645Z,3.87
2022-10-28T08:52:21.375Z,5.10
2022-10-28T08:54:53.814Z,4.43
2022-10-28T08:57:33.354Z,4.70
2022-10-28T09:00:03.257Z,2.03
2022-10-28T09:02:46.131Z,1.93
2022-10-28T09:05:22.968Z,1.80
2022-10-28T09:07:51.984Z,1.20
2022-10-28T09:10:31.308Z,1.87
2022-10-28T09:13:08.000Z,1.30
2022-10-28T09:15:43.859Z,2.00
2022-10-28T09:18:19.728Z,2.10
2022-10-28T09:20:54.602Z,2.30
2022-10-28T09:23:25.153Z,1.90
2022-10-28T09:26:08.148Z,1.80
2022-10-28T09:28:50.203Z,1.80
2022-10-28T09:31:26.036Z,1.80
2022-10-28T09:34:08.025Z,1.85
2022-10-28T09:36:42.047Z,1.83
2022-10-28T09:39:17.951Z,1.95
2022-10-28T09:41:49.055Z,1.40
2022-10-28T09:44:21.359Z,1.67
2022-10-28T09:46:52.176Z,1.93
2022-10-28T09:49:25.139Z,2.00
2022-10-28T09:52:00.487Z,2.15
2022-10-28T09:54:34.571Z,2.63
2022-10-28T09:57:04.326Z,3.60
2022-10-28T09:59:32.888Z,2.50
2022-10-28T10:02:01.160Z,3.42
2022-10-28T10:04:32.005Z,2.35
2022-10-28T10:07:06.852Z,2.80
2022-10-28T10:09:37.036Z,2.78
2022-10-28T10:12:09.459Z,3.05
2022-10-28T10:14:41.759Z,2.80
2022-10-28T10:17:16.095Z,3.38
2022-10-28T10:20:04.123Z,2.70
2022-10-28T10:22:35.115Z,3.65
2022-10-28T10:25:03.676Z,3.67
2022-10-28T10:27:32.679Z,3.20
2022-10-28T10:30:01.090Z,3.30
2022-10-28T10:32:31.496Z,3.20
2022-10-28T10:35:05.171Z,3.28
2022-10-28T10:37:36.855Z,3.30
2022-10-28T10:40:19.282Z,4.63
2022-10-28T10:43:03.474Z,5.05
2022-10-28T10:45:35.586Z,5.55
2022-10-28T10:48:13.105Z,6.70
2022-10-28T10:50:42.057Z,8.05
2022-10-28T10:53:21.330Z,10.25
2022-10-28T10:55:57.450Z,13.32
2022-10-28T10:58:28.412Z,14.90
2022-10-28T11:00:59.026Z,15.15
2022-10-28T11:03:31.746Z,15.32
2022-10-28T11:08:58.252Z,17.53
2022-10-28T11:11:34.639Z,17.30
2022-10-28T11:14:08.636Z,19.67
2022-10-28T11:16:49.599Z,18.98
2022-10-28T11:19:22.327Z,18.02
2022-10-28T11:22:23.163Z,23.10
2022-10-28T11:25:11.629Z,24.95
2022-10-28T11:27:55.292Z,26.27
2022-10-28T11:30:33.567Z,23.13
2022-10-28T11:33:28.846Z,21.83
2022-10-28T11:36:04.964Z,21.45
2022-10-28T11:38:58.545Z,22.92
2022-10-28T11:41:38.361Z,22.85
2022-10-28T11:44:18.628Z,22.50
2022-10-28T11:46:56.635Z,22.52
2022-10-28T11:49:50.016Z,22.10
2022-10-28T11:52:28.976Z,22.60
2022-10-28T11:55:06.990Z,23.50
2022-10-28T11:57:48.752Z,22.67
2022-10-28T12:00:29.039Z,23.33
2022-10-28T12:03:20.092Z,47.75
2022-10-28T12:05:52.680Z,50.97
2022-10-28T12:08:36.142Z,49.05
2022-10-28T12:11:21.440Z,59.50
2022-10-28T12:16:40.966Z,55.17
2022-10-28T12:19:14.906Z,54.60
2022-10-28T12:21:46.566Z,56.80
2022-10-28T12:24:18.622Z,51.13
2022-10-28T12:26:51.440Z,52.60
2022-10-28T12:29:25.574Z,54.13
2022-10-28T12:31:57.101Z,55.22
2022-10-28T12:34:33.138Z,57.67
2022-10-28T12:37:09.061Z,59.25
2022-10-28T12:39:43.602Z,57.85
2022-10-28T12:42:17.446Z,57.78
2022-10-28T12:44:48.836Z,56.28
2022-10-28T12:47:28.713Z,54.90
2022-10-28T12:50:05.442Z,29.35
2022-10-28T12:52:41.455Z,30.05
2022-10-28T12:55:20.327Z,26.95
2022-10-28T12:57:53.622Z,25.77
2022-10-28T13:00:27.046Z,23.95
2022-10-28T13:03:03.095Z,27.95
2022-10-28T13:05:38.626Z,30.83
2022-10-28T13:08:35.844Z,43.15
2022-10-28T13:11:30.804Z,24.50
2022-10-28T13:14:03.484Z,27.75
2022-10-28T13:16:56.749Z,29.85
2022-10-28T13:19:47.233Z,28.50
2022-10-28T13:22:44.899Z,24.33
2022-10-28T13:25:27.979Z,29.75
2022-10-28T13:27:57.872Z,27.70
2022-10-28T13:30:26.755Z,27.05
2022-10-28T13:33:05.187Z,24.38
2022-10-28T13:35:33.898Z,27.00
2022-10-28T13:38:03.772Z,22.83
2022-10-28T13:41:05.201Z,24.48
2022-10-28T13:43:58.726Z,28.63
2022-10-28T13:47:02.199Z,29.20
2022-10-28T13:49:32.506Z,23.52
2022-10-28T13:52:19.324Z,23.08
2022-10-28T13:54:58.891Z,25.27
2022-10-28T13:57:29.813Z,21.35
2022-10-28T13:59:59.774Z,20.38
2022-10-28T14:02:37.206Z,21.42
2022-10-28T14:05:09.274Z,25.00
2022-10-28T14:07:39.395Z,23.35
2022-10-28T14:10:21.061Z,19.05
2022-10-28T14:12:53.584Z,20.00
2022-10-28T14:15:25.864Z,16.90
2022-10-28T14:18:05.164Z,17.55
2022-10-28T14:20:59.133Z,18.77
2022-10-28T14:24:10.487Z,17.93
2022-10-28T14:27:30.760Z,22.23
2022-10-28T14:30:21.443Z,20.03
2022-10-28T14:33:22.314Z,18.20
2022-10-28T14:36:01.000Z,17.13
2022-10-28T14:39:11.474Z,15.88
2022-10-28T14:42:05.901Z,14.18
2022-10-28T14:44:53.574Z,12.43
2022-10-28T14:47:40.844Z,9.77
2022-10-28T14:50:18.238Z,8.05
2022-10-28T14:52:48.966Z,7.80
2022-10-28T14:55:25.169Z,12.27
2022-10-28T14:57:53.562Z,9.05
2022-10-28T15:00:25.923Z,8.70
2022-10-28T15:02:55.258Z,7.80
2022-10-28T15:05:24.805Z,6.50
2022-10-28T15:07:57.916Z,5.20
2022-10-28T15:10:29.636Z,5.70
2022-10-28T15:12:59.110Z,5.07
2022-10-28T15:15:28.654Z,4.10
2022-10-28T15:17:57.442Z,4.15
2022-10-28T15:20:28.307Z,4.38
2022-10-28T15:23:13.884Z,5.00
2022-10-28T15:25:41.875Z,3.80
2022-10-28T15:28:11.925Z,4.15
2022-10-28T15:30:45.817Z,3.83
2022-10-28T15:33:22.192Z,2.83
2022-10-28T15:35:50.250Z,3.10
2022-10-28T15:38:39.228Z,5.07
2022-10-28T15:41:40.079Z,2.93
2022-10-28T15:44:28.064Z,2.40
2022-10-28T15:46:58.404Z,3.23
2022-10-28T15:49:36.281Z,2.90
2022-10-28T15:52:41.579Z,2.60
2022-10-28T15:56:06.479Z,2.80
2022-10-28T15:58:35.765Z,2.37
2022-10-28T16:01:05.877Z,1.70
2022-10-28T16:03:43.973Z,6.63
2022-10-28T16:06:23.807Z,3.07
2022-10-28T16:09:02.155Z,1.92
2022-10-28T16:11:32.515Z,1.87
2022-10-28T16:14:04.588Z,3.63
2022-10-28T16:16:33.655Z,1.67
2022-10-28T16:19:09.358Z,1.27
2022-10-28T16:21:39.186Z,1.50
2022-10-28T16:24:07.878Z,10.90
2022-10-28T16:26:38.387Z,2.10
2022-10-28T16:29:06.411Z,2.33
2022-10-28T16:31:35.325Z,3.10
2022-10-28T16:34:03.444Z,1.13
2022-10-28T16:36:32.368Z,0.93
2022-10-28T16:39:00.300Z,1.33
2022-10-28T16:41:28.262Z,1.17
2022-10-28T16:43:57.773Z,1.30
2022-10-28T16:46:25.772Z,1.10
2022-10-28T16:48:53.751Z,1.90
2022-10-28T16:51:21.680Z,0.80
2022-10-28T16:53:50.918Z,4.40
2022-10-28T16:56:19.298Z,1.63
2022-10-28T16:58:47.252Z,1.73
2022-10-28T17:01:20.827Z,0.70
2022-10-28T17:03:49.030Z,0.87
2022-10-28T17:06:17.019Z,1.17
2022-10-28T17:11:33.152Z,4.27
2022-10-28T17:14:01.204Z,1.07
2022-10-28T17:16:30.516Z,2.70
2022-10-28T17:18:58.520Z,1.13
2022-10-28T17:21:26.799Z,1.53
2022-10-28T17:23:54.747Z,1.60
2022-10-28T17:26:22.701Z,1.87
2022-10-28T17:28:52.676Z,1.50
2022-10-28T17:31:24.813Z,1.63
2022-10-28T17:33:55.923Z,1.47
2022-10-28T17:36:24.289Z,1.73
2022-10-28T17:38:52.263Z,2.97
2022-10-28T17:41:20.583Z,5.83
2022-10-28T17:43:48.530Z,3.87
2022-10-28T17:46:16.577Z,2.43
2022-10-28T17:48:46.664Z,2.53
2022-10-28T17:51:17.393Z,1.17
2022-10-28T17:53:45.540Z,2.30
2022-10-28T17:56:16.687Z,1.53
2022-10-28T17:58:44.751Z,0.77
2022-10-28T18:01:12.979Z,1.23
2022-10-28T18:03:41.002Z,1.57
2022-10-28T18:06:12.401Z,5.50
2022-10-28T18:08:44.130Z,4.73
2022-10-28T18:11:13.925Z,2.40
2022-10-28T18:13:45.000Z,4.70
2022-10-28T18:16:15.067Z,1.07
2022-10-28T18:18:43.143Z,2.20
2022-10-28T18:21:11.809Z,2.70
2022-10-28T18:23:41.630Z,2.33
2022-10-28T18:26:13.733Z,1.38
2022-10-28T18:28:43.550Z,2.45
2022-10-28T18:31:14.101Z,2.75
2022-10-28T18:33:43.130Z,1.38
2022-10-28T18:36:12.998Z,1.85
2022-10-28T18:38:42.686Z,1.58
2022-10-28T18:41:12.189Z,1.98
2022-10-28T18:43:40.689Z,1.40
2022-10-28T18:46:09.451Z,6.50
2022-10-28T18:48:37.626Z,1.67
2022-10-28T18:51:09.479Z,3.47
2022-10-28T18:53:38.914Z,4.28
2022-10-28T18:56:10.950Z,2.20
2022-10-28T18:58:39.068Z,1.48
2022-10-28T19:01:08.896Z,6.57
2022-10-28T19:03:37.684Z,4.88
2022-10-28T19:06:07.971Z,1.35
2022-10-28T19:08:36.319Z,0.70
2022-10-28T19:11:05.180Z,0.87
2022-10-28T19:13:36.366Z,1.55
2022-10-28T19:16:04.909Z,1.27
2022-10-28T19:18:35.407Z,2.80
2022-10-28T19:21:04.522Z,1.40
2022-10-28T19:23:32.799Z,1.98
2022-10-28T19:26:01.619Z,1.27
2022-10-28T19:28:29.753Z,1.63
2022-10-28T19:31:03.559Z,2.15
2022-10-28T19:33:32.424Z,2.17
2022-10-28T19:36:04.980Z,1.93
2022-10-28T19:38:34.315Z,1.87
2022-10-28T19:41:03.888Z,1.55
2022-10-28T19:43:31.918Z,2.23
2022-10-28T19:46:10.962Z,2.17
2022-10-28T19:48:40.091Z,6.23
2022-10-28T19:51:08.446Z,1.27
2022-10-28T19:53:36.487Z,3.33
2022-10-28T19:56:06.130Z,1.05
2022-10-28T19:58:35.042Z,0.98
2022-10-28T20:01:04.930Z,0.80
2022-10-28T20:03:35.540Z,4.50
2022-10-28T20:06:08.872Z,1.35
2022-10-28T20:08:37.998Z,2.40
2022-10-28T20:11:07.336Z,3.40
2022-10-28T20:13:36.148Z,1.80
2022-10-28T20:16:06.725Z,4.57
2022-10-28T20:18:36.106Z,1.70
2022-10-28T20:21:05.680Z,2.03
2022-10-28T20:23:35.789Z,0.85
2022-10-28T20:26:04.100Z,1.10
2022-10-28T20:28:32.261Z,1.97
2022-10-28T20:31:02.019Z,1.40
2022-10-28T20:33:30.980Z,1.25
2022-10-28T20:36:00.553Z,1.47
2022-10-28T20:38:29.200Z,1.70
2022-10-28T20:40:59.313Z,1.57
2022-10-28T20:43:29.258Z,1.13
2022-10-28T20:45:59.704Z,0.67
2022-10-28T20:48:28.871Z,0.57
2022-10-28T20:50:58.591Z,1.07
2022-10-28T20:53:31.300Z,1.67
2022-10-28T20:55:59.454Z,10.50
2022-10-28T20:58:29.982Z,1.13
2022-10-28T21:01:03.635Z,3.13
2022-10-28T21:03:31.662Z,5.07
2022-10-28T21:05:59.995Z,4.93
2022-10-28T21:08:29.374Z,3.87
2022-10-28T21:10:57.481Z,1.43
2022-10-28T21:13:25.551Z,2.83
2022-10-28T21:15:56.606Z,2.27
2022-10-28T21:18:26.005Z,1.93
2022-10-28T21:20:57.775Z,0.40
2022-10-28T21:23:26.077Z,2.20
2022-10-28T21:25:55.761Z,1.63
2022-10-28T21:28:24.004Z,0.50
2022-10-28T21:30:52.147Z,1.30
2022-10-28T21:33:20.175Z,3.23
2022-10-28T21:35:56.957Z,2.17
2022-10-28T21:38:25.582Z,2.37
2022-10-28T21:41:01.885Z,1.60
2022-10-28T21:43:30.893Z,1.97
2022-10-28T21:45:59.223Z,0.47
2022-10-28T21:48:28.350Z,1.30
2022-10-28T21:50:57.932Z,10.83
2022-10-28T21:53:26.842Z,1.80
2022-10-28T21:56:02.579Z,2.73
2022-10-28T21:58:32.214Z,0.87
2022-10-28T22:01:05.067Z,1.33
2022-10-28T22:03:33.041Z,3.60
2022-10-28T22:06:01.034Z,0.50
2022-10-28T22:08:29.563Z,1.53
2022-10-28T22:11:04.673Z,1.23
2022-10-28T22:13:34.278Z,1.73
2022-10-28T22:16:04.063Z,1.53
2022-10-28T22:18:33.730Z,0.80
2022-10-28T22:21:06.639Z,0.47
2022-10-28T22:23:34.826Z,3.37
2022-10-28T22:26:03.392Z,25.80
2022-10-28T22:28:33.175Z,0.87
2022-10-28T22:31:01.707Z,2.93
2022-10-28T22:33:30.135Z,4.03
2022-10-28T22:35:58.707Z,0.90
2022-10-28T22:38:27.116Z,1.97
2022-10-28T22:41:05.828Z,1.40
2022-10-28T22:43:35.874Z,0.70
2022-10-28T22:46:05.105Z,0.93
2022-10-28T22:48:33.565Z,0.70
2022-10-28T22:51:02.262Z,2.67
2022-10-28T22:53:30.574Z,1.47
2022-10-28T22:55:59.370Z,0.93
2022-10-28T22:58:28.587Z,1.10
2022-10-28T23:01:07.740Z,1.50
2022-10-28T23:03:37.187Z,3.13
2022-10-28T23:06:05.967Z,2.90
2022-10-28T23:08:36.425Z,2.17
2022-10-28T23:11:04.825Z,0.63
2022-10-28T23:13:33.153Z,1.10
2022-10-28T23:16:04.523Z,1.27
2022-10-28T23:18:34.231Z,2.47
2022-10-28T23:21:07.320Z,0.80
2022-10-28T23:23:35.665Z,0.57
2022-10-28T23:26:04.058Z,15.93
2022-10-28T23:28:32.112Z,1.50
2022-10-28T23:31:03.670Z,0.60
2022-10-28T23:33:34.448Z,7.10
2022-10-28T23:36:04.386Z,0.83
2022-10-28T23:38:32.928Z,0.60
2022-10-28T23:41:02.427Z,1.60
2022-10-28T23:43:31.218Z,1.83
2022-10-28T23:45:59.794Z,0.60
2022-10-28T23:48:29.035Z,0.77
2022-10-28T23:50:58.915Z,2.07
2022-10-28T23:56:00.347Z,1.73
2022-10-28T23:58:28.332Z,3.63
